sensor_id;sensor_type;location;lat;lon;timestamp;P1;durP1;ratioP1;P2;durP2;ratioP2
79373;SDS011;68844;53.128;17.958;2023-11-25T00:01:59;3.20;;;1.10;;
79373;SDS011;68844;53.128;17.958;2023-11-25T00:04:25;3.10;;;0.80;;
79373;SDS011;68844;53.128;17.958;2023-11-25T00:06:52;2.40;;;0.80;;
79373;SDS011;68844;53.128;17.958;2023-11-25T00:09:19;3.40;;;1.00;;
79373;SDS011;68844;53.128;17.958;2023-11-25T00:11:45;2.10;;;0.90;;
79373;SDS011;68844;53.128;17.958;2023-11-25T00:14:12;4.00;;;0.70;;
79373;SDS011;68844;53.128;17.958;2023-11-25T00:16:39;2.90;;;0.60;;
79373;SDS011;68844;53.128;17.958;2023-11-25T00:19:05;2.60;;;0.50;;
79373;SDS011;68844;53.128;17.958;2023-11-25T00:21:32;3.10;;;0.70;;
79373;SDS011;68844;53.128;17.958;2023-11-25T00:23:59;1.90;;;0.40;;
79373;SDS011;68844;53.128;17.958;2023-11-25T00:26:25;2.00;;;0.60;;
79373;SDS011;68844;53.128;17.958;2023-11-25T00:28:56;2.20;;;0.90;;
79373;SDS011;68844;53.128;17.958;2023-11-25T00:31:23;4.70;;;1.30;;
79373;SDS011;68844;53.128;17.958;2023-11-25T00:33:51;5.30;;;1.80;;
79373;SDS011;68844;53.128;17.958;2023-11-25T00:36:17;6.00;;;2.10;;
79373;SDS011;68844;53.128;17.958;2023-11-25T00:38:44;3.00;;;1.20;;
79373;SDS011;68844;53.128;17.958;2023-11-25T00:41:11;2.00;;;1.00;;
79373;SDS011;68844;53.128;17.958;2023-11-25T00:43:37;2.30;;;1.20;;
79373;SDS011;68844;53.128;17.958;2023-11-25T00:46:05;3.80;;;1.10;;
79373;SDS011;68844;53.128;17.958;2023-11-25T00:48:32;2.40;;;1.30;;
79373;SDS011;68844;53.128;17.958;2023-11-25T00:51:01;4.20;;;1.10;;
79373;SDS011;68844;53.128;17.958;2023-11-25T00:53:28;6.60;;;1.50;;
79373;SDS011;68844;53.128;17.958;2023-11-25T00:55:55;4.30;;;1.40;;
79373;SDS011;68844;53.128;17.958;2023-11-25T00:58:22;4.00;;;1.80;;
79373;SDS011;68844;53.128;17.958;2023-11-25T01:00:49;5.50;;;2.30;;
79373;SDS011;68844;53.128;17.958;2023-11-25T01:03:16;4.60;;;1.50;;
79373;SDS011;68844;53.128;17.958;2023-11-25T01:05:43;5.80;;;2.50;;
79373;SDS011;68844;53.128;17.958;2023-11-25T01:08:10;8.50;;;4.80;;
79373;SDS011;68844;53.128;17.958;2023-11-25T01:10:37;4.10;;;2.60;;
79373;SDS011;68844;53.128;17.958;2023-11-25T01:13:04;6.30;;;3.50;;
79373;SDS011;68844;53.128;17.958;2023-11-25T01:15:30;4.60;;;2.90;;
79373;SDS011;68844;53.128;17.958;2023-11-25T01:17:58;8.30;;;5.70;;
79373;SDS011;68844;53.128;17.958;2023-11-25T01:20:24;10.80;;;6.40;;
79373;SDS011;68844;53.128;17.958;2023-11-25T01:22:51;8.80;;;6.00;;
79373;SDS011;68844;53.128;17.958;2023-11-25T01:25:18;9.60;;;7.30;;
79373;SDS011;68844;53.128;17.958;2023-11-25T01:27:44;12.90;;;8.50;;
79373;SDS011;68844;53.128;17.958;2023-11-25T01:30:11;19.10;;;10.40;;
79373;SDS011;68844;53.128;17.958;2023-11-25T01:32:38;10.00;;;6.30;;
79373;SDS011;68844;53.128;17.958;2023-11-25T01:35:05;10.90;;;6.70;;
79373;SDS011;68844;53.128;17.958;2023-11-25T01:37:32;7.00;;;4.10;;
79373;SDS011;68844;53.128;17.958;2023-11-25T01:40:00;5.90;;;4.00;;
79373;SDS011;68844;53.128;17.958;2023-11-25T01:42:26;6.10;;;2.80;;
79373;SDS011;68844;53.128;17.958;2023-11-25T01:44:53;7.80;;;4.20;;
79373;SDS011;68844;53.128;17.958;2023-11-25T01:47:20;7.20;;;3.30;;
79373;SDS011;68844;53.128;17.958;2023-11-25T01:49:47;4.40;;;1.70;;
79373;SDS011;68844;53.128;17.958;2023-11-25T01:52:15;2.30;;;1.00;;
79373;SDS011;68844;53.128;17.958;2023-11-25T01:54:42;2.90;;;1.50;;
79373;SDS011;68844;53.128;17.958;2023-11-25T01:57:09;2.60;;;1.20;;
79373;SDS011;68844;53.128;17.958;2023-11-25T01:59:36;3.70;;;1.50;;
79373;SDS011;68844;53.128;17.958;2023-11-25T02:02:03;2.80;;;1.60;;
79373;SDS011;68844;53.128;17.958;2023-11-25T02:04:33;3.20;;;1.50;;
79373;SDS011;68844;53.128;17.958;2023-11-25T02:07:00;3.50;;;1.20;;
79373;SDS011;68844;53.128;17.958;2023-11-25T02:09:27;5.20;;;1.90;;
79373;SDS011;68844;53.128;17.958;2023-11-25T02:11:58;3.90;;;1.50;;
79373;SDS011;68844;53.128;17.958;2023-11-25T02:14:26;4.40;;;1.40;;
79373;SDS011;68844;53.128;17.958;2023-11-25T02:16:53;2.30;;;1.20;;
79373;SDS011;68844;53.128;17.958;2023-11-25T02:19:22;2.70;;;1.00;;
79373;SDS011;68844;53.128;17.958;2023-11-25T02:21:52;3.50;;;1.20;;
79373;SDS011;68844;53.128;17.958;2023-11-25T02:24:20;4.30;;;1.70;;
79373;SDS011;68844;53.128;17.958;2023-11-25T02:26:56;3.70;;;1.40;;
79373;SDS011;68844;53.128;17.958;2023-11-25T02:29:25;5.00;;;1.90;;
79373;SDS011;68844;53.128;17.958;2023-11-25T02:31:52;2.10;;;0.90;;
79373;SDS011;68844;53.128;17.958;2023-11-25T02:34:19;3.90;;;1.50;;
79373;SDS011;68844;53.128;17.958;2023-11-25T02:36:47;3.20;;;1.30;;
79373;SDS011;68844;53.128;17.958;2023-11-25T02:39:14;2.80;;;1.60;;
79373;SDS011;68844;53.128;17.958;2023-11-25T02:41:47;3.20;;;1.20;;
79373;SDS011;68844;53.128;17.958;2023-11-25T02:44:19;3.00;;;1.40;;
79373;SDS011;68844;53.128;17.958;2023-11-25T02:46:48;3.80;;;1.60;;
79373;SDS011;68844;53.128;17.958;2023-11-25T02:49:15;2.90;;;1.20;;
79373;SDS011;68844;53.128;17.958;2023-11-25T02:51:49;3.70;;;1.90;;
79373;SDS011;68844;53.128;17.958;2023-11-25T02:54:19;3.70;;;1.50;;
79373;SDS011;68844;53.128;17.958;2023-11-25T02:56:46;2.50;;;0.90;;
79373;SDS011;68844;53.128;17.958;2023-11-25T02:59:13;2.60;;;1.20;;
79373;SDS011;68844;53.128;17.958;2023-11-25T03:01:40;3.60;;;0.90;;
79373;SDS011;68844;53.128;17.958;2023-11-25T03:04:15;3.00;;;1.20;;
79373;SDS011;68844;53.128;17.958;2023-11-25T03:06:43;3.80;;;1.40;;
79373;SDS011;68844;53.128;17.958;2023-11-25T03:09:10;4.60;;;1.30;;
79373;SDS011;68844;53.128;17.958;2023-11-25T03:11:37;3.50;;;1.70;;
79373;SDS011;68844;53.128;17.958;2023-11-25T03:14:04;2.90;;;1.10;;
79373;SDS011;68844;53.128;17.958;2023-11-25T03:16:32;3.00;;;1.00;;
79373;SDS011;68844;53.128;17.958;2023-11-25T03:18:59;3.20;;;1.40;;
79373;SDS011;68844;53.128;17.958;2023-11-25T03:21:27;3.60;;;1.30;;
79373;SDS011;68844;53.128;17.958;2023-11-25T03:23:54;2.70;;;0.80;;
79373;SDS011;68844;53.128;17.958;2023-11-25T03:26:21;2.20;;;0.90;;
79373;SDS011;68844;53.128;17.958;2023-11-25T03:28:49;4.50;;;0.80;;
79373;SDS011;68844;53.128;17.958;2023-11-25T03:31:17;3.20;;;1.20;;
79373;SDS011;68844;53.128;17.958;2023-11-25T03:33:43;2.60;;;0.80;;
79373;SDS011;68844;53.128;17.958;2023-11-25T03:36:10;1.70;;;0.90;;
79373;SDS011;68844;53.128;17.958;2023-11-25T03:38:38;4.60;;;0.80;;
79373;SDS011;68844;53.128;17.958;2023-11-25T03:41:05;3.90;;;1.40;;
79373;SDS011;68844;53.128;17.958;2023-11-25T03:43:32;3.60;;;1.30;;
79373;SDS011;68844;53.128;17.958;2023-11-25T03:45:58;3.60;;;1.20;;
79373;SDS011;68844;53.128;17.958;2023-11-25T03:48:26;2.60;;;1.10;;
79373;SDS011;68844;53.128;17.958;2023-11-25T03:53:21;1.20;;;0.50;;
79373;SDS011;68844;53.128;17.958;2023-11-25T03:55:48;2.10;;;0.80;;
79373;SDS011;68844;53.128;17.958;2023-11-25T03:58:15;2.20;;;0.70;;
79373;SDS011;68844;53.128;17.958;2023-11-25T04:00:42;2.80;;;1.00;;
79373;SDS011;68844;53.128;17.958;2023-11-25T04:03:08;1.60;;;0.70;;
79373;SDS011;68844;53.128;17.958;2023-11-25T04:05:35;3.50;;;1.10;;
79373;SDS011;68844;53.128;17.958;2023-11-25T04:08:02;2.50;;;1.40;;
79373;SDS011;68844;53.128;17.958;2023-11-25T04:10:28;4.10;;;1.00;;
79373;SDS011;68844;53.128;17.958;2023-11-25T04:12:55;2.60;;;1.20;;
79373;SDS011;68844;53.128;17.958;2023-11-25T04:15:22;1.50;;;0.70;;
79373;SDS011;68844;53.128;17.958;2023-11-25T04:17:50;2.90;;;0.80;;
79373;SDS011;68844;53.128;17.958;2023-11-25T04:20:17;5.20;;;1.50;;
79373;SDS011;68844;53.128;17.958;2023-11-25T04:22:51;3.50;;;1.30;;
79373;SDS011;68844;53.128;17.958;2023-11-25T04:25:18;3.40;;;1.20;;
79373;SDS011;68844;53.128;17.958;2023-11-25T04:27:46;3.90;;;0.90;;
79373;SDS011;68844;53.128;17.958;2023-11-25T04:30:14;3.20;;;1.00;;
79373;SDS011;68844;53.128;17.958;2023-11-25T04:32:43;2.20;;;0.80;;
79373;SDS011;68844;53.128;17.958;2023-11-25T04:35:11;5.30;;;1.50;;
79373;SDS011;68844;53.128;17.958;2023-11-25T04:37:40;3.50;;;1.80;;
79373;SDS011;68844;53.128;17.958;2023-11-25T04:40:11;6.00;;;1.70;;
79373;SDS011;68844;53.128;17.958;2023-11-25T04:42:42;2.00;;;1.00;;
79373;SDS011;68844;53.128;17.958;2023-11-25T04:45:10;1.50;;;0.60;;
79373;SDS011;68844;53.128;17.958;2023-11-25T04:47:45;3.50;;;1.20;;
79373;SDS011;68844;53.128;17.958;2023-11-25T04:50:14;1.70;;;1.00;;
79373;SDS011;68844;53.128;17.958;2023-11-25T04:52:41;5.30;;;1.80;;
79373;SDS011;68844;53.128;17.958;2023-11-25T04:55:10;4.10;;;2.10;;
79373;SDS011;68844;53.128;17.958;2023-11-25T04:57:41;5.10;;;1.50;;
79373;SDS011;68844;53.128;17.958;2023-11-25T05:00:08;2.60;;;1.30;;
79373;SDS011;68844;53.128;17.958;2023-11-25T05:02:37;3.70;;;1.70;;
79373;SDS011;68844;53.128;17.958;2023-11-25T05:05:05;3.00;;;1.20;;
79373;SDS011;68844;53.128;17.958;2023-11-25T05:07:33;5.50;;;1.90;;
79373;SDS011;68844;53.128;17.958;2023-11-25T05:10:01;4.50;;;2.00;;
79373;SDS011;68844;53.128;17.958;2023-11-25T05:12:31;4.50;;;1.80;;
79373;SDS011;68844;53.128;17.958;2023-11-25T05:14:58;3.70;;;1.50;;
79373;SDS011;68844;53.128;17.958;2023-11-25T05:17:25;7.00;;;1.90;;
79373;SDS011;68844;53.128;17.958;2023-11-25T05:19:52;3.20;;;1.40;;
79373;SDS011;68844;53.128;17.958;2023-11-25T05:22:19;4.50;;;1.80;;
79373;SDS011;68844;53.128;17.958;2023-11-25T05:24:47;4.90;;;1.80;;
79373;SDS011;68844;53.128;17.958;2023-11-25T05:27:14;3.20;;;1.30;;
79373;SDS011;68844;53.128;17.958;2023-11-25T05:29:41;3.00;;;1.50;;
79373;SDS011;68844;53.128;17.958;2023-11-25T05:32:07;3.40;;;1.30;;
79373;SDS011;68844;53.128;17.958;2023-11-25T05:34:35;2.60;;;1.20;;
79373;SDS011;68844;53.128;17.958;2023-11-25T05:37:02;3.10;;;1.80;;
79373;SDS011;68844;53.128;17.958;2023-11-25T05:39:29;4.20;;;2.10;;
79373;SDS011;68844;53.128;17.958;2023-11-25T05:41:56;5.40;;;1.60;;
79373;SDS011;68844;53.128;17.958;2023-11-25T05:44:23;4.40;;;2.10;;
79373;SDS011;68844;53.128;17.958;2023-11-25T05:46:54;3.20;;;1.70;;
79373;SDS011;68844;53.128;17.958;2023-11-25T05:49:21;6.80;;;2.50;;
79373;SDS011;68844;53.128;17.958;2023-11-25T05:51:48;6.90;;;3.20;;
79373;SDS011;68844;53.128;17.958;2023-11-25T05:54:17;7.30;;;3.00;;
79373;SDS011;68844;53.128;17.958;2023-11-25T05:56:45;8.10;;;2.00;;
79373;SDS011;68844;53.128;17.958;2023-11-25T05:59:15;4.20;;;1.30;;
79373;SDS011;68844;53.128;17.958;2023-11-25T06:01:43;4.00;;;1.90;;
79373;SDS011;68844;53.128;17.958;2023-11-25T06:04:10;6.00;;;2.30;;
79373;SDS011;68844;53.128;17.958;2023-11-25T06:06:36;5.60;;;1.90;;
79373;SDS011;68844;53.128;17.958;2023-11-25T06:09:05;5.80;;;2.90;;
79373;SDS011;68844;53.128;17.958;2023-11-25T06:11:32;6.40;;;2.60;;
79373;SDS011;68844;53.128;17.958;2023-11-25T06:13:59;6.70;;;2.90;;
79373;SDS011;68844;53.128;17.958;2023-11-25T06:16:26;5.70;;;2.40;;
79373;SDS011;68844;53.128;17.958;2023-11-25T06:18:53;4.40;;;1.20;;
79373;SDS011;68844;53.128;17.958;2023-11-25T06:21:21;4.80;;;1.80;;
79373;SDS011;68844;53.128;17.958;2023-11-25T06:23:48;4.50;;;1.60;;
79373;SDS011;68844;53.128;17.958;2023-11-25T06:26:16;3.20;;;1.20;;
79373;SDS011;68844;53.128;17.958;2023-11-25T06:28:45;2.30;;;1.20;;
79373;SDS011;68844;53.128;17.958;2023-11-25T06:31:13;3.80;;;1.80;;
79373;SDS011;68844;53.128;17.958;2023-11-25T06:33:42;5.10;;;2.10;;
79373;SDS011;68844;53.128;17.958;2023-11-25T06:36:09;4.00;;;1.40;;
79373;SDS011;68844;53.128;17.958;2023-11-25T06:38:37;2.70;;;0.80;;
79373;SDS011;68844;53.128;17.958;2023-11-25T06:41:04;2.50;;;0.90;;
79373;SDS011;68844;53.128;17.958;2023-11-25T06:43:31;2.30;;;1.20;;
79373;SDS011;68844;53.128;17.958;2023-11-25T06:45:57;3.00;;;1.20;;
79373;SDS011;68844;53.128;17.958;2023-11-25T06:48:26;2.90;;;1.30;;
79373;SDS011;68844;53.128;17.958;2023-11-25T06:50:52;3.70;;;1.60;;
79373;SDS011;68844;53.128;17.958;2023-11-25T06:53:19;3.20;;;1.60;;
79373;SDS011;68844;53.128;17.958;2023-11-25T06:55:46;3.40;;;1.60;;
79373;SDS011;68844;53.128;17.958;2023-11-25T06:58:13;4.20;;;1.80;;
79373;SDS011;68844;53.128;17.958;2023-11-25T07:00:41;3.60;;;1.10;;
79373;SDS011;68844;53.128;17.958;2023-11-25T07:03:08;6.00;;;2.40;;
79373;SDS011;68844;53.128;17.958;2023-11-25T07:05:35;5.70;;;2.00;;
79373;SDS011;68844;53.128;17.958;2023-11-25T07:08:03;4.10;;;1.50;;
79373;SDS011;68844;53.128;17.958;2023-11-25T07:10:32;3.80;;;2.00;;
79373;SDS011;68844;53.128;17.958;2023-11-25T07:13:02;5.60;;;1.70;;
79373;SDS011;68844;53.128;17.958;2023-11-25T07:15:30;3.60;;;1.40;;
79373;SDS011;68844;53.128;17.958;2023-11-25T07:17:57;4.20;;;1.30;;
79373;SDS011;68844;53.128;17.958;2023-11-25T07:20:24;4.20;;;1.80;;
79373;SDS011;68844;53.128;17.958;2023-11-25T07:22:52;6.40;;;1.90;;
79373;SDS011;68844;53.128;17.958;2023-11-25T07:25:18;7.20;;;2.10;;
79373;SDS011;68844;53.128;17.958;2023-11-25T07:27:45;5.50;;;2.70;;
79373;SDS011;68844;53.128;17.958;2023-11-25T07:30:13;3.30;;;1.50;;
79373;SDS011;68844;53.128;17.958;2023-11-25T07:32:41;4.70;;;2.20;;
79373;SDS011;68844;53.128;17.958;2023-11-25T07:35:11;5.00;;;2.90;;
79373;SDS011;68844;53.128;17.958;2023-11-25T07:37:39;5.20;;;2.10;;
79373;SDS011;68844;53.128;17.958;2023-11-25T07:40:07;6.70;;;2.20;;
79373;SDS011;68844;53.128;17.958;2023-11-25T07:42:41;3.80;;;1.80;;
79373;SDS011;68844;53.128;17.958;2023-11-25T07:45:12;3.70;;;1.60;;
79373;SDS011;68844;53.128;17.958;2023-11-25T07:47:39;3.40;;;1.60;;
79373;SDS011;68844;53.128;17.958;2023-11-25T07:50:08;4.20;;;1.60;;
79373;SDS011;68844;53.128;17.958;2023-11-25T07:52:36;4.70;;;2.10;;
79373;SDS011;68844;53.128;17.958;2023-11-25T07:55:03;4.70;;;1.90;;
79373;SDS011;68844;53.128;17.958;2023-11-25T07:57:31;5.30;;;2.00;;
79373;SDS011;68844;53.128;17.958;2023-11-25T07:59:59;2.80;;;1.40;;
79373;SDS011;68844;53.128;17.958;2023-11-25T08:02:25;1.70;;;0.80;;
79373;SDS011;68844;53.128;17.958;2023-11-25T08:04:52;3.30;;;1.50;;
79373;SDS011;68844;53.128;17.958;2023-11-25T08:07:19;1.40;;;1.00;;
79373;SDS011;68844;53.128;17.958;2023-11-25T08:09:46;5.60;;;1.60;;
79373;SDS011;68844;53.128;17.958;2023-11-25T08:12:13;4.60;;;1.70;;
79373;SDS011;68844;53.128;17.958;2023-11-25T08:14:40;4.00;;;2.20;;
79373;SDS011;68844;53.128;17.958;2023-11-25T08:17:07;2.40;;;1.00;;
79373;SDS011;68844;53.128;17.958;2023-11-25T08:19:33;4.30;;;1.30;;
79373;SDS011;68844;53.128;17.958;2023-11-25T08:22:00;4.10;;;1.40;;
79373;SDS011;68844;53.128;17.958;2023-11-25T08:24:26;4.40;;;2.10;;
79373;SDS011;68844;53.128;17.958;2023-11-25T08:26:53;3.20;;;1.70;;
79373;SDS011;68844;53.128;17.958;2023-11-25T08:29:20;3.80;;;1.90;;
79373;SDS011;68844;53.128;17.958;2023-11-25T08:31:46;3.80;;;1.80;;
79373;SDS011;68844;53.128;17.958;2023-11-25T08:34:13;4.20;;;1.90;;
79373;SDS011;68844;53.128;17.958;2023-11-25T08:36:41;5.50;;;2.80;;
79373;SDS011;68844;53.128;17.958;2023-11-25T08:39:22;4.50;;;3.00;;
79373;SDS011;68844;53.128;17.958;2023-11-25T08:41:52;4.90;;;1.90;;
79373;SDS011;68844;53.128;17.958;2023-11-25T08:44:20;3.60;;;2.20;;
79373;SDS011;68844;53.128;17.958;2023-11-25T08:46:47;4.50;;;2.60;;
79373;SDS011;68844;53.128;17.958;2023-11-25T08:49:14;5.20;;;2.90;;
79373;SDS011;68844;53.128;17.958;2023-11-25T08:51:43;4.20;;;2.50;;
79373;SDS011;68844;53.128;17.958;2023-11-25T08:54:13;3.40;;;1.60;;
79373;SDS011;68844;53.128;17.958;2023-11-25T08:56:40;4.30;;;2.10;;
79373;SDS011;68844;53.128;17.958;2023-11-25T08:59:10;8.30;;;3.60;;
79373;SDS011;68844;53.128;17.958;2023-11-25T09:01:44;6.70;;;3.00;;
79373;SDS011;68844;53.128;17.958;2023-11-25T09:04:13;5.60;;;2.70;;
79373;SDS011;68844;53.128;17.958;2023-11-25T09:06:46;5.90;;;2.10;;
79373;SDS011;68844;53.128;17.958;2023-11-25T09:09:14;4.30;;;2.10;;
79373;SDS011;68844;53.128;17.958;2023-11-25T09:11:43;6.00;;;2.50;;
79373;SDS011;68844;53.128;17.958;2023-11-25T09:14:10;5.70;;;2.70;;
79373;SDS011;68844;53.128;17.958;2023-11-25T09:16:37;7.70;;;3.90;;
79373;SDS011;68844;53.128;17.958;2023-11-25T09:19:04;5.90;;;3.20;;
79373;SDS011;68844;53.128;17.958;2023-11-25T09:21:31;7.50;;;3.90;;
79373;SDS011;68844;53.128;17.958;2023-11-25T09:23:57;7.40;;;3.50;;
79373;SDS011;68844;53.128;17.958;2023-11-25T09:26:24;8.90;;;3.10;;
79373;SDS011;68844;53.128;17.958;2023-11-25T09:28:52;6.90;;;3.20;;
79373;SDS011;68844;53.128;17.958;2023-11-25T09:31:19;5.50;;;2.40;;
79373;SDS011;68844;53.128;17.958;2023-11-25T09:33:46;7.70;;;3.50;;
79373;SDS011;68844;53.128;17.958;2023-11-25T09:36:13;4.30;;;1.80;;
79373;SDS011;68844;53.128;17.958;2023-11-25T09:38:40;8.60;;;2.60;;
79373;SDS011;68844;53.128;17.958;2023-11-25T09:41:07;5.30;;;2.10;;
79373;SDS011;68844;53.128;17.958;2023-11-25T09:43:35;4.40;;;1.90;;
79373;SDS011;68844;53.128;17.958;2023-11-25T09:46:02;6.50;;;2.70;;
79373;SDS011;68844;53.128;17.958;2023-11-25T09:48:30;5.30;;;2.20;;
79373;SDS011;68844;53.128;17.958;2023-11-25T09:50:57;5.70;;;1.90;;
79373;SDS011;68844;53.128;17.958;2023-11-25T09:53:29;7.60;;;2.80;;
79373;SDS011;68844;53.128;17.958;2023-11-25T09:56:02;6.40;;;1.80;;
79373;SDS011;68844;53.128;17.958;2023-11-25T09:58:34;5.00;;;2.20;;
79373;SDS011;68844;53.128;17.958;2023-11-25T10:01:02;7.90;;;3.30;;
79373;SDS011;68844;53.128;17.958;2023-11-25T10:03:34;8.00;;;3.10;;
79373;SDS011;68844;53.128;17.958;2023-11-25T10:06:03;6.40;;;2.60;;
79373;SDS011;68844;53.128;17.958;2023-11-25T10:08:30;5.60;;;2.60;;
79373;SDS011;68844;53.128;17.958;2023-11-25T10:11:01;8.70;;;3.30;;
79373;SDS011;68844;53.128;17.958;2023-11-25T10:13:35;4.80;;;2.10;;
79373;SDS011;68844;53.128;17.958;2023-11-25T10:16:04;7.50;;;3.20;;
79373;SDS011;68844;53.128;17.958;2023-11-25T10:18:32;5.70;;;2.80;;
79373;SDS011;68844;53.128;17.958;2023-11-25T10:21:01;9.20;;;4.00;;
79373;SDS011;68844;53.128;17.958;2023-11-25T10:23:32;5.60;;;2.50;;
79373;SDS011;68844;53.128;17.958;2023-11-25T10:26:01;7.50;;;2.80;;
79373;SDS011;68844;53.128;17.958;2023-11-25T10:28:31;9.60;;;3.10;;
79373;SDS011;68844;53.128;17.958;2023-11-25T10:31:00;11.80;;;4.10;;
79373;SDS011;68844;53.128;17.958;2023-11-25T10:33:28;9.30;;;4.00;;
79373;SDS011;68844;53.128;17.958;2023-11-25T10:35:55;6.70;;;3.10;;
79373;SDS011;68844;53.128;17.958;2023-11-25T10:38:23;10.00;;;4.00;;
79373;SDS011;68844;53.128;17.958;2023-11-25T10:40:59;6.80;;;2.90;;
79373;SDS011;68844;53.128;17.958;2023-11-25T10:43:27;7.40;;;2.80;;
79373;SDS011;68844;53.128;17.958;2023-11-25T10:46:06;9.80;;;3.50;;
79373;SDS011;68844;53.128;17.958;2023-11-25T10:48:34;6.00;;;2.40;;
79373;SDS011;68844;53.128;17.958;2023-11-25T10:51:03;5.10;;;2.40;;
79373;SDS011;68844;53.128;17.958;2023-11-25T10:53:32;8.10;;;2.80;;
79373;SDS011;68844;53.128;17.958;2023-11-25T10:55:59;10.00;;;4.00;;
79373;SDS011;68844;53.128;17.958;2023-11-25T10:58:27;7.00;;;2.60;;
79373;SDS011;68844;53.128;17.958;2023-11-25T11:00:56;9.50;;;4.20;;
79373;SDS011;68844;53.128;17.958;2023-11-25T11:06:09;9.00;;;3.70;;
79373;SDS011;68844;53.128;17.958;2023-11-25T11:08:38;7.30;;;3.90;;
79373;SDS011;68844;53.128;17.958;2023-11-25T11:11:16;6.80;;;2.90;;
79373;SDS011;68844;53.128;17.958;2023-11-25T11:13:52;8.70;;;3.20;;
79373;SDS011;68844;53.128;17.958;2023-11-25T11:19:04;8.70;;;4.00;;
79373;SDS011;68844;53.128;17.958;2023-11-25T11:21:38;6.20;;;2.50;;
79373;SDS011;68844;53.128;17.958;2023-11-25T11:24:06;6.50;;;2.90;;
79373;SDS011;68844;53.128;17.958;2023-11-25T11:26:41;8.20;;;3.30;;
79373;SDS011;68844;53.128;17.958;2023-11-25T11:29:36;7.80;;;3.60;;
79373;SDS011;68844;53.128;17.958;2023-11-25T11:32:06;7.30;;;2.90;;
79373;SDS011;68844;53.128;17.958;2023-11-25T11:34:34;10.20;;;3.30;;
79373;SDS011;68844;53.128;17.958;2023-11-25T11:37:05;12.00;;;5.80;;
79373;SDS011;68844;53.128;17.958;2023-11-25T11:42:22;5.70;;;3.10;;
79373;SDS011;68844;53.128;17.958;2023-11-25T11:47:25;7.90;;;4.20;;
79373;SDS011;68844;53.128;17.958;2023-11-25T11:49:52;8.40;;;4.90;;
79373;SDS011;68844;53.128;17.958;2023-11-25T11:52:19;10.10;;;4.80;;
79373;SDS011;68844;53.128;17.958;2023-11-25T11:54:45;7.80;;;4.60;;
79373;SDS011;68844;53.128;17.958;2023-11-25T11:57:12;8.20;;;3.60;;
79373;SDS011;68844;53.128;17.958;2023-11-25T12:00:02;9.70;;;4.10;;
79373;SDS011;68844;53.128;17.958;2023-11-25T12:02:38;5.70;;;3.10;;
79373;SDS011;68844;53.128;17.958;2023-11-25T12:05:09;5.50;;;2.30;;
79373;SDS011;68844;53.128;17.958;2023-11-25T12:07:37;7.20;;;3.20;;
79373;SDS011;68844;53.128;17.958;2023-11-25T12:10:04;5.20;;;1.80;;
79373;SDS011;68844;53.128;17.958;2023-11-25T12:12:38;5.80;;;2.30;;
79373;SDS011;68844;53.128;17.958;2023-11-25T12:15:07;7.10;;;2.80;;
79373;SDS011;68844;53.128;17.958;2023-11-25T12:17:35;5.90;;;2.80;;
79373;SDS011;68844;53.128;17.958;2023-11-25T12:20:02;5.30;;;2.10;;
79373;SDS011;68844;53.128;17.958;2023-11-25T12:22:30;4.90;;;2.30;;
79373;SDS011;68844;53.128;17.958;2023-11-25T12:24:57;4.60;;;2.00;;
79373;SDS011;68844;53.128;17.958;2023-11-25T12:27:23;6.20;;;3.10;;
79373;SDS011;68844;53.128;17.958;2023-11-25T12:29:52;5.40;;;3.00;;
79373;SDS011;68844;53.128;17.958;2023-11-25T12:32:18;8.70;;;3.40;;
79373;SDS011;68844;53.128;17.958;2023-11-25T12:34:45;5.10;;;3.00;;
79373;SDS011;68844;53.128;17.958;2023-11-25T12:37:12;6.30;;;3.50;;
79373;SDS011;68844;53.128;17.958;2023-11-25T12:39:39;7.00;;;3.30;;
79373;SDS011;68844;53.128;17.958;2023-11-25T12:42:06;8.60;;;3.10;;
79373;SDS011;68844;53.128;17.958;2023-11-25T12:44:49;5.70;;;2.90;;
79373;SDS011;68844;53.128;17.958;2023-11-25T12:47:16;9.70;;;4.10;;
79373;SDS011;68844;53.128;17.958;2023-11-25T12:49:43;6.20;;;2.30;;
79373;SDS011;68844;53.128;17.958;2023-11-25T12:52:20;7.20;;;3.20;;
79373;SDS011;68844;53.128;17.958;2023-11-25T12:54:49;6.80;;;3.30;;
79373;SDS011;68844;53.128;17.958;2023-11-25T12:57:16;4.60;;;2.10;;
79373;SDS011;68844;53.128;17.958;2023-11-25T12:59:44;9.40;;;4.30;;
79373;SDS011;68844;53.128;17.958;2023-11-25T13:02:12;8.60;;;3.70;;
79373;SDS011;68844;53.128;17.958;2023-11-25T13:04:43;12.30;;;4.70;;
79373;SDS011;68844;53.128;17.958;2023-11-25T13:10:00;8.70;;;4.20;;
79373;SDS011;68844;53.128;17.958;2023-11-25T13:12:28;7.30;;;3.80;;
79373;SDS011;68844;53.128;17.958;2023-11-25T13:14:56;6.60;;;3.00;;
79373;SDS011;68844;53.128;17.958;2023-11-25T13:17:23;7.40;;;3.30;;
79373;SDS011;68844;53.128;17.958;2023-11-25T13:19:50;5.90;;;2.70;;
79373;SDS011;68844;53.128;17.958;2023-11-25T13:22:17;3.80;;;1.90;;
79373;SDS011;68844;53.128;17.958;2023-11-25T13:24:44;6.20;;;3.10;;
79373;SDS011;68844;53.128;17.958;2023-11-25T13:27:11;8.10;;;3.50;;
79373;SDS011;68844;53.128;17.958;2023-11-25T13:29:39;8.30;;;3.80;;
79373;SDS011;68844;53.128;17.958;2023-11-25T13:32:08;10.70;;;4.90;;
79373;SDS011;68844;53.128;17.958;2023-11-25T13:34:35;19.40;;;8.60;;
79373;SDS011;68844;53.128;17.958;2023-11-25T13:37:01;12.70;;;4.80;;
79373;SDS011;68844;53.128;17.958;2023-11-25T13:39:29;16.40;;;7.10;;
79373;SDS011;68844;53.128;17.958;2023-11-25T13:41:57;12.40;;;5.00;;
79373;SDS011;68844;53.128;17.958;2023-11-25T13:44:24;14.40;;;7.50;;
79373;SDS011;68844;53.128;17.958;2023-11-25T13:46:51;9.70;;;3.90;;
79373;SDS011;68844;53.128;17.958;2023-11-25T13:49:18;11.60;;;4.90;;
79373;SDS011;68844;53.128;17.958;2023-11-25T13:51:44;8.30;;;3.30;;
79373;SDS011;68844;53.128;17.958;2023-11-25T13:54:11;7.60;;;3.00;;
79373;SDS011;68844;53.128;17.958;2023-11-25T13:56:38;7.00;;;3.30;;
79373;SDS011;68844;53.128;17.958;2023-11-25T13:59:04;9.70;;;4.90;;
79373;SDS011;68844;53.128;17.958;2023-11-25T14:01:31;6.90;;;3.30;;
79373;SDS011;68844;53.128;17.958;2023-11-25T14:03:58;8.50;;;3.90;;
79373;SDS011;68844;53.128;17.958;2023-11-25T14:06:27;11.50;;;5.10;;
79373;SDS011;68844;53.128;17.958;2023-11-25T14:08:56;8.60;;;4.30;;
79373;SDS011;68844;53.128;17.958;2023-11-25T14:11:25;9.90;;;4.70;;
79373;SDS011;68844;53.128;17.958;2023-11-25T14:13:52;10.80;;;5.00;;
79373;SDS011;68844;53.128;17.958;2023-11-25T14:16:19;11.70;;;5.80;;
79373;SDS011;68844;53.128;17.958;2023-11-25T14:18:45;11.70;;;5.30;;
79373;SDS011;68844;53.128;17.958;2023-11-25T14:21:12;13.70;;;5.90;;
79373;SDS011;68844;53.128;17.958;2023-11-25T14:23:39;12.20;;;5.40;;
79373;SDS011;68844;53.128;17.958;2023-11-25T14:26:06;13.60;;;4.70;;
79373;SDS011;68844;53.128;17.958;2023-11-25T14:28:33;14.80;;;7.00;;
79373;SDS011;68844;53.128;17.958;2023-11-25T14:30:59;10.80;;;4.50;;
79373;SDS011;68844;53.128;17.958;2023-11-25T14:33:26;13.40;;;5.40;;
79373;SDS011;68844;53.128;17.958;2023-11-25T14:35:53;14.30;;;5.80;;
79373;SDS011;68844;53.128;17.958;2023-11-25T14:38:20;19.40;;;8.30;;
79373;SDS011;68844;53.128;17.958;2023-11-25T14:43:15;18.90;;;7.70;;
79373;SDS011;68844;53.128;17.958;2023-11-25T14:45:42;20.40;;;8.20;;
79373;SDS011;68844;53.128;17.958;2023-11-25T14:48:09;18.20;;;8.30;;
79373;SDS011;68844;53.128;17.958;2023-11-25T14:50:37;17.70;;;9.10;;
79373;SDS011;68844;53.128;17.958;2023-11-25T14:53:07;15.60;;;7.80;;
79373;SDS011;68844;53.128;17.958;2023-11-25T14:55:34;15.20;;;7.60;;
79373;SDS011;68844;53.128;17.958;2023-11-25T14:58:00;8.20;;;3.50;;